Time;durP1;ratioP1;P1;durP2;ratioP2;P2;SDS_P1;SDS_P2;PMS_P1;PMS_P2;Temp;Humidity;BMP_temperature;BMP_pressure;BME280_temperature;BME280_humidity;BME280_pressure;Samples;Min_cycle;Max_cycle;Signal;HPM_P1;HPM_P2
2022/09/21 00:00:43;;;;;;;;;5.67;4.33;;;;;16.15;52.38;102087.59;4974040;27;45544;-69
2022/09/21 00:03:09;;;;;;;;;6.33;5.33;;;;;16.15;52.00;102078.78;4974782;27;46212;-71
2022/09/21 00:05:36;;;;;;;;;7.33;6.00;;;;;16.16;51.69;102081.44;4991219;27;45592;-68
2022/09/21 00:08:05;;;;;;;;;5.67;4.00;;;;;16.21;51.89;102090.25;4991575;27;45436;-66
2022/09/21 00:10:31;;;;;;;;;8.67;6.67;;;;;16.13;52.08;102081.41;4990803;27;45476;-67
2022/09/21 00:12:57;;;;;;;;;5.33;4.00;;;;;16.07;52.50;102077.03;4975436;27;46553;-66
2022/09/21 00:15:25;;;;;;;;;5.00;5.00;;;;;16.10;52.28;102087.59;4995646;27;45649;-67
2022/09/21 00:17:55;;;;;;;;;4.00;4.00;;;;;16.01;52.22;102082.28;5000662;27;45407;-68
2022/09/21 00:20:24;;;;;;;;;4.00;3.67;;;;;15.95;51.95;102070.84;4993207;27;45542;-68
2022/09/21 00:22:50;;;;;;;;;5.67;5.00;;;;;16.05;51.94;102078.78;5010681;27;46585;-66
2022/09/21 00:25:17;;;;;;;;;7.00;4.00;;;;;16.12;51.95;102084.94;5012399;27;45305;-65
2022/09/21 00:27:43;;;;;;;;;7.00;4.33;;;;;16.10;51.96;102090.22;5015173;27;45397;-64
2022/09/21 00:30:10;;;;;;;;;5.00;5.00;;;;;16.03;51.87;102093.75;4978976;28;45327;-66
2022/09/21 00:32:38;;;;;;;;;6.00;5.00;;;;;15.99;52.08;102094.66;4990186;27;45807;-68
2022/09/21 00:35:08;;;;;;;;;6.00;4.33;;;;;15.90;52.00;102087.56;5006751;27;45769;-66
2022/09/21 00:37:34;;;;;;;;;5.00;5.00;;;;;15.91;52.12;102083.16;4979849;27;45760;-66
2022/09/21 00:40:00;;;;;;;;;5.67;5.00;;;;;15.85;52.54;102088.44;5012585;27;45435;-68
2022/09/21 00:42:30;;;;;;;;;4.33;3.00;;;;;15.72;52.75;102073.44;4992831;27;46569;-66
2022/09/21 00:44:56;;;;;;;;;4.00;4.00;;;;;15.72;52.55;102082.25;4993009;27;45409;-67
2022/09/21 00:47:43;;;;;;;;;4.00;3.00;;;;;15.82;52.47;102093.72;5011049;27;45326;-70
2022/09/21 00:50:14;;;;;;;;;3.00;3.00;;;;;15.85;52.54;102094.63;5013360;27;45374;-66
2022/09/21 00:52:45;;;;;;;;;5.00;5.00;;;;;15.77;52.82;102088.41;5010512;27;46375;-65
2022/09/21 00:55:36;;;;;;;;;5.00;4.00;;;;;15.71;53.10;102096.34;4992435;27;45902;-67
2022/09/21 00:58:11;;;;;;;;;4.33;3.33;;;;;15.50;53.84;102091.84;5014839;27;45216;-66
2022/09/21 01:00:36;;;;;;;;;5.67;4.67;;;;;15.57;53.48;102098.03;5014596;27;45345;-67
2022/09/21 01:03:04;;;;;;;;;6.33;5.00;;;;;15.50;53.71;102086.56;5013922;27;45487;-65
2022/09/21 01:05:30;;;;;;;;;2.67;2.67;;;;;15.52;53.86;102098.03;4996226;27;45798;-66
2022/09/21 01:08:00;;;;;;;;;4.00;4.00;;;;;15.44;54.25;102074.22;5014445;27;45438;-66
2022/09/21 01:10:32;;;;;;;;;4.00;3.33;;;;;15.45;54.02;102080.41;4994963;27;45516;-66
2022/09/21 01:13:29;;;;;;;;;4.67;4.67;;;;;15.39;54.46;102091.78;4995633;27;47120;-65
2022/09/21 01:15:54;;;;;;;;;6.00;5.67;;;;;15.39;54.90;102097.06;4981780;27;45870;-66
2022/09/21 01:18:29;;;;;;;;;4.67;4.33;;;;;15.44;54.45;102108.53;5010057;27;45581;-66
2022/09/21 01:21:06;;;;;;;;;4.00;3.67;;;;;15.40;54.80;102113.78;5012968;27;45409;-67
2022/09/21 01:23:57;;;;;;;;;4.67;4.00;;;;;15.31;55.20;102108.50;4995751;27;46219;-66
2022/09/21 01:26:25;;;;;;;;;5.33;4.00;;;;;15.34;55.03;102104.09;4985466;27;45435;-67
2022/09/21 01:29:05;;;;;;;;;4.33;3.67;;;;;15.25;54.76;102096.13;5013145;27;45736;-66
2022/09/21 01:31:38;;;;;;;;;6.67;5.00;;;;;15.27;55.14;102105.81;5015899;27;45452;-67
2022/09/21 01:34:14;;;;;;;;;4.67;4.67;;;;;15.20;55.36;102111.09;5011527;27;45534;-67
2022/09/21 01:36:42;;;;;;;;;8.67;5.00;;;;;15.04;55.36;102105.75;4994103;27;45635;-66
2022/09/21 01:39:12;;;;;;;;;4.00;4.00;;;;;15.06;55.75;102105.72;4998028;27;45471;-67
2022/09/21 01:41:41;;;;;;;;;3.00;3.00;;;;;15.00;55.88;102076.69;5012551;27;45540;-66
2022/09/21 01:44:13;;;;;;;;;4.33;4.00;;;;;14.96;56.25;102088.97;5013318;27;46221;-66
2022/09/21 01:46:39;;;;;;;;;3.33;3.33;;;;;15.00;55.95;102103.06;5011121;27;45432;-66
2022/09/21 01:49:14;;;;;;;;;5.67;3.33;;;;;15.05;56.23;102102.22;5005683;27;45479;-66
2022/09/21 01:51:54;;;;;;;;;5.67;4.00;;;;;15.08;56.16;102106.63;4983389;27;45534;-66
2022/09/21 01:55:00;;;;;;;;;3.00;3.00;;;;;15.10;56.16;102107.50;5010563;27;45500;-66
2022/09/21 01:57:37;;;;;;;;;2.33;2.00;;;;;15.10;55.68;102099.59;5032516;28;45450;-67
2022/09/21 02:00:05;;;;;;;;;4.00;4.00;;;;;15.18;56.19;102104.91;4985128;27;45451;-66
2022/09/21 02:02:31;;;;;;;;;2.67;2.67;;;;;15.13;56.28;102107.53;5013099;27;45875;-70
2022/09/21 02:05:00;;;;;;;;;4.33;3.67;;;;;15.03;55.73;102093.41;4998147;27;47862;-67
2022/09/21 02:07:26;;;;;;;;;3.00;3.00;;;;;15.08;55.56;102097.81;5016413;27;45333;-67
2022/09/21 02:09:54;;;;;;;;;5.33;4.00;;;;;15.08;55.83;102095.19;5016659;27;45483;-67
2022/09/21 02:12:23;;;;;;;;;5.00;4.67;;;;;15.05;56.50;102099.56;5013295;27;45910;-68
2022/09/21 02:14:56;;;;;;;;;7.33;5.33;;;;;14.97;56.65;102100.41;4994711;27;46614;-68
2022/09/21 02:17:43;;;;;;;;;4.33;3.33;;;;;15.00;56.45;102103.06;5010721;27;45420;-68
2022/09/21 02:20:27;;;;;;;;;4.33;4.00;;;;;14.90;56.79;102098.59;5013917;27;45468;-67
2022/09/21 02:22:59;;;;;;;;;6.00;5.00;;;;;14.76;57.23;102098.50;5012435;27;45394;-66
2022/09/21 02:25:43;;;;;;;;;5.33;5.33;;;;;14.83;57.06;102105.63;5012716;27;45502;-67
2022/09/21 02:28:25;;;;;;;;;3.33;3.33;;;;;14.76;56.76;102082.69;5016439;27;45219;-67
2022/09/21 02:31:15;;;;;;;;;3.67;3.67;;;;;14.89;56.54;102094.22;5016169;27;45363;-66
2022/09/21 02:33:57;;;;;;;;;4.00;4.00;;;;;15.02;55.95;102099.56;5007260;27;45520;-65
2022/09/21 02:36:34;;;;;;;;;4.00;4.00;;;;;15.10;55.83;102093.44;5012181;27;46149;-67
2022/09/21 02:39:14;;;;;;;;;2.67;2.00;;;;;15.16;55.47;102097.00;5007977;27;45976;-67
2022/09/21 02:41:57;;;;;;;;;3.00;3.00;;;;;15.18;55.66;102092.59;5009172;27;45394;-66
2022/09/21 02:44:32;;;;;;;;;4.00;4.00;;;;;15.23;55.50;102088.25;4998237;27;45598;-66
2022/09/21 02:47:18;;;;;;;;;3.00;3.00;;;;;15.31;55.53;102093.53;5016058;27;45922;-67
2022/09/21 02:49:53;;;;;;;;;57.25;45.75;;;;;15.33;55.19;102080.31;4997972;27;45436;-66
2022/09/21 02:52:20;;;;;;;;;71.25;54.50;;;;;15.40;54.94;102088.28;5015571;27;45636;-65
2022/09/21 02:54:51;;;;;;;;;55.00;43.50;;;;;15.41;54.69;102084.78;5011951;27;45897;-67
2022/09/21 02:57:20;;;;;;;;;37.25;32.25;;;;;15.41;54.98;102076.84;4993778;27;46801;-67
2022/09/21 02:59:47;;;;;;;;;22.50;16.00;;;;;15.47;54.95;102083.91;5011067;27;45405;-68
2022/09/21 03:02:13;;;;;;;;;18.50;13.25;;;;;15.49;54.84;102082.16;5011506;27;45420;-66
2022/09/21 03:04:42;;;;;;;;;12.33;9.00;;;;;15.29;54.82;102038.97;4994470;27;45469;-65
2022/09/21 03:07:08;;;;;;;;;5.33;5.33;;;;;15.49;54.54;102076.88;4996738;27;46945;-66
2022/09/21 03:09:35;;;;;;;;;7.00;6.33;;;;;15.49;54.75;102076.88;5011281;27;45516;-67
2022/09/21 03:12:01;;;;;;;;;5.67;5.67;;;;;15.49;54.38;102079.50;4993735;27;45460;-67
2022/09/21 03:14:26;;;;;;;;;4.67;4.67;;;;;15.45;54.64;102076.00;5010749;27;45324;-67
2022/09/21 03:16:53;;;;;;;;;4.00;4.00;;;;;15.49;54.34;102076.88;5011426;27;45526;-68
2022/09/21 03:19:19;;;;;;;;;4.00;4.00;;;;;15.50;54.90;102081.28;4977098;27;45511;-67
2022/09/21 03:21:44;;;;;;;;;6.33;4.33;;;;;15.49;54.46;102082.16;5011210;27;45495;-67
2022/09/21 03:24:10;;;;;;;;;7.33;4.00;;;;;15.47;54.43;102075.97;4997026;27;45394;-66
2022/09/21 03:26:35;;;;;;;;;5.33;4.00;;;;;15.48;54.89;102075.13;5011208;27;45596;-71
2022/09/21 03:29:02;;;;;;;;;3.00;3.00;;;;;15.34;55.17;102059.22;5011543;27;45358;-67
2022/09/21 03:31:28;;;;;;;;;3.00;3.00;;;;;15.41;54.91;102084.78;5014005;27;45404;-68
2022/09/21 03:33:53;;;;;;;;;4.00;4.00;;;;;15.35;54.86;102076.84;4997845;27;45422;-70
2022/09/21 03:36:19;;;;;;;;;4.00;3.67;;;;;15.36;54.81;102086.50;5010816;27;46279;-67
2022/09/21 03:38:45;;;;;;;;;4.00;4.00;;;;;15.37;54.69;102088.25;5010859;27;45601;-68
2022/09/21 03:41:12;;;;;;;;;4.00;4.00;;;;;15.37;54.77;102074.19;5011211;27;45363;-64
2022/09/21 03:43:38;;;;;;;;;4.33;4.33;;;;;15.36;54.63;102069.81;4998499;27;46306;-66
2022/09/21 03:46:04;;;;;;;;;3.00;2.00;;;;;15.41;54.92;102073.34;5009643;27;45409;-68
2022/09/21 03:48:29;;;;;;;;;3.67;3.67;;;;;15.42;54.69;102081.28;5013743;27;45445;-66
2022/09/21 03:50:56;;;;;;;;;4.00;4.00;;;;;15.44;54.89;102089.19;5010977;27;45918;-66
2022/09/21 03:53:21;;;;;;;;;5.33;4.67;;;;;15.39;54.91;102070.69;5010973;27;45515;-67
2022/09/21 03:55:47;;;;;;;;;4.67;4.67;;;;;15.39;54.93;102080.38;5010528;27;45952;-66
2022/09/21 03:58:12;;;;;;;;;7.00;5.33;;;;;15.37;54.72;102087.38;5010839;27;45815;-66
2022/09/21 04:00:41;;;;;;;;;8.00;6.00;;;;;15.38;54.95;102084.75;5011077;27;45546;-67
2022/09/21 04:03:07;;;;;;;;;5.67;5.33;;;;;15.41;55.05;102094.44;5012361;27;45627;-67
2022/09/21 04:05:33;;;;;;;;;7.67;7.67;;;;;15.36;54.80;102085.63;5010412;27;45365;-67
2022/09/21 04:08:00;;;;;;;;;11.33;8.00;;;;;15.31;54.67;102082.97;5010081;27;45769;-66
2022/09/21 04:10:31;;;;;;;;;8.67;7.33;;;;;15.34;54.85;102082.09;5007746;27;45643;-66
2022/09/21 04:13:00;;;;;;;;;11.33;9.67;;;;;15.35;54.87;102081.22;4988181;27;45329;-66
2022/09/21 04:15:26;;;;;;;;;11.50;11.50;;;;;15.27;55.27;102084.72;5014542;27;45523;-65
2022/09/21 04:17:52;;;;;;;;;15.67;11.00;;;;;15.28;55.56;102082.97;4996567;27;45440;-66
2022/09/21 04:20:19;;;;;;;;;14.75;11.50;;;;;15.30;55.36;102085.59;5015267;27;45527;-68
2022/09/21 04:22:46;;;;;;;;;19.00;17.25;;;;;15.26;55.46;102080.31;4997059;27;45568;-67
2022/09/21 04:25:12;;;;;;;;;23.75;17.75;;;;;15.20;55.46;102077.66;4993310;27;45614;-65
2022/09/21 04:27:39;;;;;;;;;17.75;17.25;;;;;15.10;55.63;102081.13;5002289;27;45737;-66
2022/09/21 04:30:07;;;;;;;;;16.25;15.00;;;;;15.07;55.66;102075.84;5009100;27;45805;-65
2022/09/21 04:32:32;;;;;;;;;19.75;17.75;;;;;15.09;55.72;102076.75;5013479;27;45173;-68
2022/09/21 04:34:58;;;;;;;;;16.50;14.50;;;;;14.99;55.42;102052.03;5009862;27;45909;-67
2022/09/21 04:37:23;;;;;;;;;20.00;17.25;;;;;15.00;56.70;102076.69;5011366;27;45471;-66
2022/09/21 04:39:49;;;;;;;;;21.75;18.25;;;;;14.45;57.20;102029.75;4996461;27;45523;-67
2022/09/21 04:42:15;;;;;;;;;23.00;22.00;;;;;14.62;57.25;102069.44;5012408;27;45468;-66
2022/09/21 04:44:40;;;;;;;;;24.25;20.50;;;;;14.50;57.48;102069.28;5003159;27;45476;-66
2022/09/21 04:47:06;;;;;;;;;22.25;16.75;;;;;14.51;57.13;102073.72;4998362;27;45640;-66
2022/09/21 04:49:31;;;;;;;;;20.00;15.75;;;;;14.62;57.12;102078.22;5013381;27;45571;-67
2022/09/21 04:51:58;;;;;;;;;17.25;16.25;;;;;14.70;56.80;102075.63;4997431;27;45415;-68
2022/09/21 04:54:24;;;;;;;;;26.25;18.25;;;;;14.73;57.00;102077.41;5015079;27;45471;-66
2022/09/21 04:56:50;;;;;;;;;19.25;18.00;;;;;14.74;56.65;102079.19;5013521;27;45697;-66
2022/09/21 04:59:15;;;;;;;;;26.00;20.25;;;;;14.60;57.35;102074.69;4995242;27;45493;-67
2022/09/21 05:01:41;;;;;;;;;25.00;21.50;;;;;14.55;57.41;102083.44;5013202;27;45442;-65
2022/09/21 05:04:06;;;;;;;;;23.50;22.00;;;;;14.55;57.33;102092.22;5013392;27;46683;-66
2022/09/21 05:06:33;;;;;;;;;18.25;17.00;;;;;14.49;57.70;102089.50;5014720;27;45464;-67
2022/09/21 05:11:45;;;;;;;;;16.75;12.00;;;;;14.66;56.67;102087.00;5013492;27;45673;-68
2022/09/21 05:14:12;;;;;;;;;14.50;11.00;;;;;14.73;56.92;102096.72;4999359;27;48273;-65
2022/09/21 05:16:38;;;;;;;;;12.75;11.25;;;;;14.74;56.29;102089.72;5015702;27;45429;-67
2022/09/21 05:19:03;;;;;;;;;7.33;7.33;;;;;14.75;56.66;102070.38;5012872;27;45263;-72
2022/09/21 05:21:30;;;;;;;;;9.00;7.33;;;;;14.77;56.11;102076.56;4997683;27;45689;-66
2022/09/21 05:23:56;;;;;;;;;7.33;5.67;;;;;14.88;56.14;102092.41;5024833;27;46296;-68
2022/09/21 05:26:22;;;;;;;;;10.67;7.33;;;;;14.84;56.12;102079.22;5019501;27;45410;-65
2022/09/21 05:28:48;;;;;;;;;8.00;6.33;;;;;14.91;55.99;102092.47;5016839;27;45409;-65
2022/09/21 05:31:18;;;;;;;;;9.00;6.00;;;;;14.91;56.27;102090.69;5000612;27;45448;-66
2022/09/21 05:34:15;;;;;;;;;6.33;5.33;;;;;14.90;55.86;102090.69;4994334;27;45524;-66
2022/09/21 05:37:19;;;;;;;;;8.00;6.67;;;;;14.93;56.04;102096.00;5014816;27;45421;-66
2022/09/21 05:39:45;;;;;;;;;8.00;6.33;;;;;14.91;55.86;102089.81;5008096;27;45549;-67
2022/09/21 05:42:11;;;;;;;;;5.00;4.00;;;;;14.89;55.76;102081.03;5011388;27;45511;-65
2022/09/21 05:44:37;;;;;;;;;10.00;5.67;;;;;14.91;55.81;102088.06;5007364;27;45475;-66
2022/09/21 05:47:25;;;;;;;;;5.33;5.33;;;;;14.97;56.03;102097.75;5011373;27;45404;-68
2022/09/21 05:50:04;;;;;;;;;7.33;6.00;;;;;15.00;55.71;102093.41;4980010;27;45485;-66
2022/09/21 05:52:45;;;;;;;;;7.00;5.00;;;;;14.96;55.72;102086.31;4992699;27;45473;-69
2022/09/21 05:55:32;;;;;;;;;4.67;4.00;;;;;15.04;55.96;102096.91;5005056;27;45550;-68
2022/09/21 05:58:38;;;;;;;;;9.33;5.33;;;;;15.05;55.83;102089.03;4997176;27;45551;-67
2022/09/21 06:01:24;;;;;;;;;6.00;5.00;;;;;15.11;55.37;102090.78;4996817;27;45397;-71
2022/09/21 06:03:51;;;;;;;;;4.00;4.00;;;;;15.10;55.54;102078.50;5007201;27;45342;-66
2022/09/21 06:06:18;;;;;;;;;5.67;4.67;;;;;15.19;55.03;102082.94;4992876;27;45703;-69
2022/09/21 06:08:52;;;;;;;;;8.67;6.00;;;;;15.31;55.32;102097.94;4993072;27;45584;-69
2022/09/21 06:11:17;;;;;;;;;5.33;5.33;;;;;15.35;55.25;102091.78;4994412;27;45624;-68
2022/09/21 06:13:44;;;;;;;;;6.67;5.33;;;;;15.46;54.85;102096.22;4992949;27;45450;-67
2022/09/21 06:16:12;;;;;;;;;5.67;5.33;;;;;15.55;54.75;102097.16;4995373;27;46282;-68
2022/09/21 06:18:39;;;;;;;;;7.33;5.67;;;;;15.61;53.83;102089.22;4975207;27;45907;-67
2022/09/21 06:21:06;;;;;;;;;8.67;7.33;;;;;15.63;54.42;102080.44;4993040;27;45461;-66
2022/09/21 06:23:32;;;;;;;;;7.33;6.33;;;;;15.69;54.06;102084.84;5001236;27;45386;-68
2022/09/21 06:25:58;;;;;;;;;8.00;6.33;;;;;15.83;53.91;102080.53;4978099;27;45468;-65
2022/09/21 06:28:24;;;;;;;;;12.00;8.00;;;;;16.23;52.87;102092.88;4977313;27;45432;-65
2022/09/21 06:30:51;;;;;;;;;7.67;6.33;;;;;16.25;53.15;102094.66;4996880;27;45524;-66
2022/09/21 06:33:20;;;;;;;;;10.33;7.00;;;;;16.24;52.79;102089.38;4995761;27;45434;-65
2022/09/21 06:35:56;;;;;;;;;9.00;7.33;;;;;16.03;52.68;102062.03;4973881;27;48162;-66
2022/09/21 06:38:24;;;;;;;;;8.67;6.33;;;;;16.28;53.07;102099.94;4973973;27;45363;-67
2022/09/21 06:40:50;;;;;;;;;6.33;5.67;;;;;16.32;52.73;102098.16;4991953;27;45473;-65
2022/09/21 06:43:17;;;;;;;;;6.67;6.67;;;;;16.22;53.11;102078.78;4991690;27;45522;-67
2022/09/21 06:45:43;;;;;;;;;13.33;8.67;;;;;16.43;52.64;102106.09;4997484;27;45591;-67
2022/09/21 06:48:09;;;;;;;;;10.33;8.00;;;;;16.42;52.59;102094.66;5016088;27;45446;-66
2022/09/21 06:50:35;;;;;;;;;6.67;6.67;;;;;16.47;52.49;102095.53;5015832;27;45521;-69
2022/09/21 06:53:02;;;;;;;;;10.00;8.67;;;;;16.57;52.10;102100.81;4998550;27;45383;-65
2022/09/21 06:55:31;;;;;;;;;14.00;10.00;;;;;16.63;52.06;102103.44;4995368;27;45545;-67
2022/09/21 06:58:04;;;;;;;;;11.67;9.00;;;;;16.67;51.94;102100.78;5011196;27;45584;-67
2022/09/21 07:00:31;;;;;;;;;10.67;10.33;;;;;16.69;52.10;102106.06;4990043;27;45357;-68
2022/09/21 07:02:56;;;;;;;;;10.33;8.33;;;;;16.74;51.98;102104.31;4993571;27;47422;-68
2022/09/21 07:05:22;;;;;;;;;8.33;8.33;;;;;16.83;51.77;102103.44;5013210;27;45828;-72
2022/09/21 07:07:48;;;;;;;;;9.33;8.33;;;;;16.71;51.81;102076.09;4994157;27;45722;-71
2022/09/21 07:10:13;;;;;;;;;9.67;7.00;;;;;16.80;51.66;102085.81;5011343;27;45492;-66
2022/09/21 07:12:40;;;;;;;;;10.33;10.00;;;;;16.94;51.49;102096.34;4997489;27;45563;-71
2022/09/21 07:15:06;;;;;;;;;9.67;9.67;;;;;16.82;51.77;102089.31;5015978;27;46210;-65
2022/09/21 07:17:34;;;;;;;;;16.33;12.33;;;;;16.89;51.77;102106.94;5015517;27;45537;-70
2022/09/21 07:20:03;;;;;;;;;10.67;9.00;;;;;16.81;51.89;102107.84;4996073;27;45665;-68
2022/09/21 07:22:29;;;;;;;;;17.00;13.00;;;;;16.82;51.86;102089.31;5012989;27;45653;-69
2022/09/21 07:24:56;;;;;;;;;10.67;9.33;;;;;16.79;52.01;102102.56;5010826;27;45502;-71
2022/09/21 07:27:23;;;;;;;;;10.00;8.33;;;;;16.85;51.68;102091.97;5010943;27;45425;-66
2022/09/21 07:29:49;;;;;;;;;12.00;10.67;;;;;16.97;51.18;102087.53;4996700;27;45424;-69
2022/09/21 07:32:15;;;;;;;;;10.67;10.33;;;;;16.93;51.19;102095.47;5013493;27;45408;-65
2022/09/21 07:34:41;;;;;;;;;12.00;11.67;;;;;16.94;51.27;102096.34;5003295;27;46172;-65
2022/09/21 07:37:07;;;;;;;;;12.00;12.00;;;;;16.94;51.36;102097.25;4988959;27;45445;-69
2022/09/21 07:39:34;;;;;;;;;11.67;8.00;;;;;16.91;51.13;102072.53;5014766;27;45457;-66
2022/09/21 07:42:00;;;;;;;;;9.33;7.67;;;;;17.11;50.69;102096.31;5015039;27;45593;-68
2022/09/21 07:44:25;;;;;;;;;7.00;6.33;;;;;17.21;50.39;102095.38;4996655;27;45515;-67
2022/09/21 07:46:51;;;;;;;;;14.67;11.33;;;;;17.26;50.14;102093.59;5012733;27;45450;-68
2022/09/21 07:49:17;;;;;;;;;12.00;12.00;;;;;17.23;49.95;102084.81;5013530;27;45302;-65
2022/09/21 07:51:42;;;;;;;;;16.33;14.00;;;;;17.11;50.32;102085.72;5011478;27;45671;-67
2022/09/21 07:54:09;;;;;;;;;15.00;11.67;;;;;17.09;50.48;102091.00;5011080;27;45425;-65
2022/09/21 07:56:36;;;;;;;;;15.67;13.33;;;;;16.92;50.58;102053.16;5010648;27;45555;-69
2022/09/21 07:59:06;;;;;;;;;11.00;11.00;;;;;17.14;50.27;102083.94;5010582;27;45581;-65
2022/09/21 08:01:40;;;;;;;;;10.00;8.00;;;;;17.28;49.76;102083.00;5011097;27;45500;-66
2022/09/21 08:04:09;;;;;;;;;8.00;6.67;;;;;17.32;49.63;102063.53;5013193;27;46085;-68
2022/09/21 08:06:38;;;;;;;;;9.67;7.33;;;;;17.43;49.32;102061.72;5011822;27;45399;-66
2022/09/21 08:09:05;;;;;;;;;8.33;8.33;;;;;17.59;49.21;102076.66;5010596;27;45552;-67
2022/09/21 08:11:32;;;;;;;;;9.00;8.00;;;;;17.58;48.76;102061.66;5013665;27;45464;-65
2022/09/21 08:14:02;;;;;;;;;9.33;7.33;;;;;17.68;48.93;102072.22;4992466;27;46682;-66
2022/09/21 08:16:30;;;;;;;;;10.00;10.00;;;;;17.75;48.68;102074.81;5010869;27;45551;-66
2022/09/21 08:18:56;;;;;;;;;7.33;7.33;;;;;17.60;48.31;102035.13;5011073;27;45602;-66
2022/09/21 08:21:22;;;;;;;;;8.67;8.00;;;;;17.89;48.32;102072.09;5010014;27;45526;-66
2022/09/21 08:23:48;;;;;;;;;13.33;9.33;;;;;18.00;47.74;102082.59;5013352;27;46328;-67
2022/09/21 08:26:19;;;;;;;;;12.67;10.67;;;;;17.97;47.88;102077.34;4996608;27;45419;-66
2022/09/21 08:28:48;;;;;;;;;18.00;13.33;;;;;17.74;48.03;102072.16;5014841;27;45284;-66
2022/09/21 08:31:16;;;;;;;;;13.33;8.33;;;;;17.76;48.05;102088.91;5001895;27;45623;-65
2022/09/21 08:33:42;;;;;;;;;12.67;11.33;;;;;17.74;47.98;102075.66;5009608;27;45446;-67
2022/09/21 08:36:09;;;;;;;;;12.67;12.00;;;;;17.75;47.86;102080.09;5003173;27;45536;-67
2022/09/21 08:38:37;;;;;;;;;14.67;12.33;;;;;17.57;48.17;102067.84;5001590;27;45426;-65
2022/09/21 08:41:24;;;;;;;;;10.67;9.00;;;;;17.64;48.20;102079.28;4997371;27;45468;-66
2022/09/21 08:44:04;;;;;;;;;12.00;10.00;;;;;17.61;47.71;102079.31;4992775;27;45515;-65
2022/09/21 08:46:34;;;;;;;;;15.00;11.33;;;;;17.53;48.16;102084.63;4991491;27;45580;-71
2022/09/21 08:49:16;;;;;;;;;11.33;11.33;;;;;17.45;48.39;102077.63;4989642;27;45771;-66
2022/09/21 08:51:53;;;;;;;;;15.00;13.33;;;;;17.47;48.44;102074.06;4989931;27;45472;-64
2022/09/21 08:54:57;;;;;;;;;13.67;12.00;;;;;17.60;48.51;102082.81;4971577;27;46669;-68
2022/09/21 08:57:30;;;;;;;;;12.33;10.67;;;;;17.65;48.89;102078.38;4989218;27;45830;-65
2022/09/21 08:59:56;;;;;;;;;15.67;14.67;;;;;17.73;48.26;102083.66;4991148;27;45578;-65
2022/09/21 09:02:49;;;;;;;;;8.67;8.67;;;;;17.77;48.28;102088.94;4991449;27;45479;-67
2022/09/21 09:05:36;;;;;;;;;14.00;11.67;;;;;17.88;47.16;102091.53;4989302;27;45633;-67
2022/09/21 09:08:21;;;;;;;;;11.00;9.33;;;;;17.84;46.63;102080.94;4993939;27;45474;-66
2022/09/21 09:10:56;;;;;;;;;10.67;10.33;;;;;17.70;47.47;102088.94;4991252;27;45364;-65
2022/09/21 09:13:54;;;;;;;;;10.67;9.67;;;;;17.61;48.15;102092.56;4990109;27;45539;-64
2022/09/21 09:16:59;;;;;;;;;9.33;9.33;;;;;17.79;47.72;102091.53;4975963;27;46678;-67
2022/09/21 09:19:53;;;;;;;;;11.33;9.33;;;;;17.86;47.83;102098.59;5006981;27;45556;-64
2022/09/21 09:22:26;;;;;;;;;10.33;9.67;;;;;18.03;47.60;102071.97;4997343;27;45629;-69
2022/09/21 09:24:59;;;;;;;;;10.33;10.33;;;;;18.22;46.57;102083.31;4992912;27;45444;-66
2022/09/21 09:27:47;;;;;;;;;9.00;7.00;;;;;18.16;46.84;102078.94;4988973;27;46136;-67
2022/09/21 09:30:24;;;;;;;;;7.33;7.33;;;;;18.41;46.00;102084.03;4990240;27;45554;-67
2022/09/21 09:32:59;;;;;;;;;11.67;9.33;;;;;18.53;45.68;102078.63;4992766;27;45728;-67
2022/09/21 09:35:37;;;;;;;;;9.33;9.33;;;;;18.32;45.78;102062.88;4993069;27;45838;-68
2022/09/21 09:38:11;;;;;;;;;10.00;7.00;;;;;18.48;46.14;102083.06;4995168;27;46279;-66
2022/09/21 09:40:55;;;;;;;;;9.33;7.33;;;;;18.67;46.92;102067.84;4995945;27;45441;-64
2022/09/21 09:43:39;;;;;;;;;7.33;6.00;;;;;19.07;46.00;102076.28;4992420;27;45406;-67
2022/09/21 09:46:14;;;;;;;;;4.00;4.00;;;;;19.31;45.32;102078.66;5011609;27;45840;-68
2022/09/21 09:49:26;;;;;;;;;9.00;7.33;;;;;19.41;45.41;102067.00;5011905;27;45753;-64
2022/09/21 09:51:52;;;;;;;;;6.67;5.00;;;;;19.61;44.65;102074.72;5011983;27;45388;-64
2022/09/21 09:54:23;;;;;;;;;5.00;5.00;;;;;19.81;44.33;102067.38;4994831;27;45587;-65
2022/09/21 09:56:49;;;;;;;;;9.67;8.33;;;;;19.92;43.28;102069.84;5014132;27;46385;-65
2022/09/21 09:59:47;;;;;;;;;8.00;8.00;;;;;20.00;42.89;102072.38;5032410;27;45609;-66
2022/09/21 10:02:22;;;;;;;;;12.00;8.67;;;;;20.04;43.26;102074.09;5016155;27;45878;-66
2022/09/21 10:05:05;;;;;;;;;14.00;9.33;;;;;19.92;42.41;102029.97;5020720;27;45882;-66
2022/09/21 10:07:42;;;;;;;;;8.33;7.33;;;;;20.21;42.58;102076.47;4997678;27;45534;-66
2022/09/21 10:10:31;;;;;;;;;14.67;10.33;;;;;20.16;41.40;102067.69;5063057;27;46607;-67
2022/09/21 10:13:08;;;;;;;;;10.67;9.33;;;;;19.65;42.34;102057.81;5026380;27;46470;-67
2022/09/21 10:15:50;;;;;;;;;8.33;8.33;;;;;19.72;43.10;102048.91;5029576;27;45894;-67
2022/09/21 10:18:36;;;;;;;;;8.67;5.33;;;;;20.11;42.70;102050.00;5009991;27;45548;-64
2022/09/21 10:21:22;;;;;;;;;7.00;5.33;;;;;20.49;42.05;102051.13;4989926;27;46819;-63
2022/09/21 10:24:00;;;;;;;;;5.33;3.33;;;;;20.76;42.17;102054.19;5018488;27;45381;-64
2022/09/21 10:26:53;;;;;;;;;10.67;9.33;;;;;20.98;40.26;102053.78;4990218;27;45538;-65
2022/09/21 10:29:28;;;;;;;;;11.00;9.33;;;;;20.84;40.58;102056.72;4994744;27;45521;-65
2022/09/21 10:32:22;;;;;;;;;13.67;8.00;;;;;20.81;40.11;102056.78;4991831;27;46097;-66
2022/09/21 10:35:09;;;;;;;;;9.33;7.67;;;;;20.67;40.42;102049.94;4978868;27;45459;-66
2022/09/21 10:37:41;;;;;;;;;7.67;6.00;;;;;21.02;40.30;102056.34;4991730;27;45544;-67
2022/09/21 10:40:16;;;;;;;;;6.00;5.00;;;;;21.54;39.67;102044.56;5000841;27;45452;-65
2022/09/21 10:42:47;;;;;;;;;5.33;4.00;;;;;21.85;39.19;102042.97;4978108;27;46438;-64
2022/09/21 10:45:17;;;;;;;;;4.00;3.67;;;;;22.15;38.36;102041.34;5007361;27;45405;-67
2022/09/21 10:47:47;;;;;;;;;5.67;4.00;;;;;22.15;38.28;102041.34;5019310;27;45528;-66
2022/09/21 10:50:27;;;;;;;;;3.33;3.33;;;;;22.17;38.08;102045.72;5008846;27;45499;-66
2022/09/21 10:53:11;;;;;;;;;3.00;3.00;;;;;22.32;37.80;102047.16;5042263;27;45675;-65
2022/09/21 10:55:57;;;;;;;;;3.33;3.00;;;;;22.35;37.81;102046.19;4977628;27;45470;-66
2022/09/21 10:58:23;;;;;;;;;5.67;5.67;;;;;22.76;36.73;102020.16;5012329;27;45669;-65
2022/09/21 11:00:50;;;;;;;;;3.00;3.00;;;;;23.44;36.12;102029.72;5002969;27;45448;-65
2022/09/21 11:03:46;;;;;;;;;3.33;3.33;;;;;24.19;35.04;102029.97;5057444;27;46655;-67
2022/09/21 11:06:34;;;;;;;;;5.33;5.00;;;;;24.32;33.78;102019.69;5005862;27;45547;-66
2022/09/21 11:09:44;;;;;;;;;6.67;6.33;;;;;23.65;34.55;102031.72;5048459;27;45702;-68
2022/09/21 11:12:46;;;;;;;;;7.00;6.00;;;;;27.13;29.38;101997.47;5035360;27;45476;-66
2022/09/21 11:15:39;;;;;;;;;6.00;6.00;;;;;29.58;26.17;101997.19;5040880;27;47916;-65
2022/09/21 11:18:33;;;;;;;;;4.00;3.67;;;;;28.62;26.80;102014.25;5053041;27;45777;-66
2022/09/21 11:21:19;;;;;;;;;6.00;4.33;;;;;27.02;28.16;101995.28;5039867;27;45554;-64
2022/09/21 11:23:44;;;;;;;;;4.00;4.00;;;;;26.26;29.58;102009.50;5032824;27;45592;-65
2022/09/21 11:26:29;;;;;;;;;4.67;4.67;;;;;28.06;27.88;102015.38;5033998;27;46916;-66
2022/09/21 11:29:16;;;;;;;;;6.33;5.00;;;;;29.86;25.10;102006.41;5020281;27;45834;-64
2022/09/21 11:32:05;;;;;;;;;6.00;4.00;;;;;29.32;25.51;101987.91;5020584;27;45306;-64
2022/09/21 11:34:52;;;;;;;;;6.00;6.00;;;;;27.86;26.45;101997.56;5045907;27;46023;-66
2022/09/21 11:37:34;;;;;;;;;4.00;4.00;;;;;29.30;26.16;101997.91;5009561;27;46468;-64
2022/09/21 11:40:05;;;;;;;;;5.00;3.50;;;;;31.43;23.47;101980.41;5008423;27;45354;-65
2022/09/21 11:42:37;;;;;;;;;3.00;3.00;;;;;29.60;24.73;101973.69;5065238;27;45562;-63
2022/09/21 11:45:24;;;;;;;;;3.00;3.00;;;;;28.62;26.84;101976.53;5010080;27;45483;-65
2022/09/21 11:48:05;;;;;;;;;3.00;3.00;;;;;28.65;26.32;101979.03;5017657;27;45574;-63
2022/09/21 11:50:30;;;;;;;;;2.25;2.25;;;;;30.14;25.34;101969.63;5007529;27;45644;-64